sensor_id;sensor_type;location;lat;lon;timestamp;temperature;humidity
2463;DHT22;1243;54.298;10.172;2023-01-05T00:01:08;8.40;99.90
2463;DHT22;1243;54.298;10.172;2023-01-05T00:03:35;8.40;99.90
2463;DHT22;1243;54.298;10.172;2023-01-05T00:06:03;8.40;99.90
2463;DHT22;1243;54.298;10.172;2023-01-05T00:08:29;8.30;99.90
2463;DHT22;1243;54.298;10.172;2023-01-05T00:10:55;8.20;99.90
2463;DHT22;1243;54.298;10.172;2023-01-05T00:13:39;8.20;99.90
2463;DHT22;1243;54.298;10.172;2023-01-05T00:16:23;8.20;99.90
2463;DHT22;1243;54.298;10.172;2023-01-05T00:19:10;8.20;99.90
2463;DHT22;1243;54.298;10.172;2023-01-05T00:21:55;8.20;99.90
2463;DHT22;1243;54.298;10.172;2023-01-05T00:24:39;8.20;99.90
2463;DHT22;1243;54.298;10.172;2023-01-05T00:27:05;8.20;99.90
2463;DHT22;1243;54.298;10.172;2023-01-05T00:29:31;8.20;99.90
2463;DHT22;1243;54.298;10.172;2023-01-05T00:31:57;8.20;99.90
2463;DHT22;1243;54.298;10.172;2023-01-05T00:34:22;8.10;99.90
2463;DHT22;1243;54.298;10.172;2023-01-05T00:36:48;8.10;99.90
2463;DHT22;1243;54.298;10.172;2023-01-05T00:39:14;8.20;99.90
2463;DHT22;1243;54.298;10.172;2023-01-05T00:41:39;8.20;99.90
2463;DHT22;1243;54.298;10.172;2023-01-05T00:44:05;8.20;99.90
2463;DHT22;1243;54.298;10.172;2023-01-05T00:46:31;8.20;99.90
2463;DHT22;1243;54.298;10.172;2023-01-05T00:48:56;8.20;99.90
2463;DHT22;1243;54.298;10.172;2023-01-05T00:51:22;8.20;99.90
2463;DHT22;1243;54.298;10.172;2023-01-05T00:53:48;8.20;99.90
2463;DHT22;1243;54.298;10.172;2023-01-05T00:56:14;8.20;80.20
2463;DHT22;1243;54.298;10.172;2023-01-05T00:58:39;8.20;69.90
2463;DHT22;1243;54.298;10.172;2023-01-05T01:01:10;8.20;64.50
2463;DHT22;1243;54.298;10.172;2023-01-05T01:03:35;8.20;66.50
2463;DHT22;1243;54.298;10.172;2023-01-05T01:06:01;8.20;41.00
2463;DHT22;1243;54.298;10.172;2023-01-05T01:08:27;8.20;23.80
2463;DHT22;1243;54.298;10.172;2023-01-05T01:10:52;8.20;24.70
2463;DHT22;1243;54.298;10.172;2023-01-05T01:13:18;8.20;20.00
2463;DHT22;1243;54.298;10.172;2023-01-05T01:15:44;8.20;3.60
2463;DHT22;1243;54.298;10.172;2023-01-05T01:18:09;8.20;1.00
2463;DHT22;1243;54.298;10.172;2023-01-05T01:20:36;8.20;1.00
2463;DHT22;1243;54.298;10.172;2023-01-05T01:23:02;8.20;1.00
2463;DHT22;1243;54.298;10.172;2023-01-05T01:25:29;8.20;1.00
2463;DHT22;1243;54.298;10.172;2023-01-05T01:27:55;8.20;1.00
2463;DHT22;1243;54.298;10.172;2023-01-05T01:30:21;8.20;1.00
2463;DHT22;1243;54.298;10.172;2023-01-05T01:32:47;8.20;1.00
2463;DHT22;1243;54.298;10.172;2023-01-05T01:35:12;8.20;3.50
2463;DHT22;1243;54.298;10.172;2023-01-05T01:37:38;8.10;2.50
2463;DHT22;1243;54.298;10.172;2023-01-05T01:40:05;8.10;8.80
2463;DHT22;1243;54.298;10.172;2023-01-05T01:42:32;8.10;11.40
2463;DHT22;1243;54.298;10.172;2023-01-05T01:45:00;8.10;1.00
2463;DHT22;1243;54.298;10.172;2023-01-05T01:47:37;8.10;1.00
2463;DHT22;1243;54.298;10.172;2023-01-05T01:50:34;8.20;1.00
2463;DHT22;1243;54.298;10.172;2023-01-05T01:53:05;8.20;1.00
2463;DHT22;1243;54.298;10.172;2023-01-05T01:55:33;8.10;1.00
2463;DHT22;1243;54.298;10.172;2023-01-05T01:58:02;8.10;1.00
2463;DHT22;1243;54.298;10.172;2023-01-05T02:00:30;8.10;1.00
2463;DHT22;1243;54.298;10.172;2023-01-05T02:02:56;8.20;1.00
2463;DHT22;1243;54.298;10.172;2023-01-05T02:05:29;8.20;1.00
2463;DHT22;1243;54.298;10.172;2023-01-05T02:07:56;8.20;1.00
2463;DHT22;1243;54.298;10.172;2023-01-05T02:16:06;8.30;1.00
2463;DHT22;1243;54.298;10.172;2023-01-05T02:22:00;8.20;1.00
2463;DHT22;1243;54.298;10.172;2023-01-05T02:32:30;8.20;1.00
2463;DHT22;1243;54.298;10.172;2023-01-05T02:37:42;8.20;1.00
2463;DHT22;1243;54.298;10.172;2023-01-05T02:40:19;8.10;1.00
2463;DHT22;1243;54.298;10.172;2023-01-05T02:42:48;8.20;1.00
2463;DHT22;1243;54.298;10.172;2023-01-05T02:45:16;8.10;1.00
2463;DHT22;1243;54.298;10.172;2023-01-05T02:47:43;8.20;1.00
2463;DHT22;1243;54.298;10.172;2023-01-05T02:50:16;8.20;1.00
2463;DHT22;1243;54.298;10.172;2023-01-05T02:52:54;8.20;1.00
2463;DHT22;1243;54.298;10.172;2023-01-05T02:55:34;8.20;1.00
2463;DHT22;1243;54.298;10.172;2023-01-05T02:58:20;8.20;1.00
2463;DHT22;1243;54.298;10.172;2023-01-05T03:00:52;8.20;1.00
2463;DHT22;1243;54.298;10.172;2023-01-05T03:03:31;8.30;1.00
2463;DHT22;1243;54.298;10.172;2023-01-05T03:06:07;8.30;1.00
2463;DHT22;1243;54.298;10.172;2023-01-05T03:08:37;8.30;1.00
2463;DHT22;1243;54.298;10.172;2023-01-05T03:11:10;8.30;1.00
2463;DHT22;1243;54.298;10.172;2023-01-05T03:14:13;8.30;1.00
2463;DHT22;1243;54.298;10.172;2023-01-05T03:16:40;8.30;1.00
2463;DHT22;1243;54.298;10.172;2023-01-05T03:19:12;8.30;1.00
2463;DHT22;1243;54.298;10.172;2023-01-05T03:22:00;8.30;1.00
2463;DHT22;1243;54.298;10.172;2023-01-05T03:24:47;8.30;1.00
2463;DHT22;1243;54.298;10.172;2023-01-05T03:27:31;8.30;1.00
2463;DHT22;1243;54.298;10.172;2023-01-05T03:30:16;8.30;1.00
2463;DHT22;1243;54.298;10.172;2023-01-05T03:33:06;8.30;1.00
2463;DHT22;1243;54.298;10.172;2023-01-05T03:35:56;8.30;1.00
2463;DHT22;1243;54.298;10.172;2023-01-05T03:38:34;8.30;1.00
2463;DHT22;1243;54.298;10.172;2023-01-05T03:41:04;8.30;1.00
2463;DHT22;1243;54.298;10.172;2023-01-05T03:43:34;8.30;1.00
2463;DHT22;1243;54.298;10.172;2023-01-05T03:46:00;8.30;1.00
2463;DHT22;1243;54.298;10.172;2023-01-05T03:48:33;8.30;1.00
2463;DHT22;1243;54.298;10.172;2023-01-05T03:50:59;8.30;1.00
2463;DHT22;1243;54.298;10.172;2023-01-05T03:53:24;8.30;1.00
2463;DHT22;1243;54.298;10.172;2023-01-05T03:55:50;8.30;1.00
2463;DHT22;1243;54.298;10.172;2023-01-05T03:58:15;8.30;1.00
2463;DHT22;1243;54.298;10.172;2023-01-05T04:00:41;8.30;1.00
2463;DHT22;1243;54.298;10.172;2023-01-05T04:03:07;8.30;1.00
2463;DHT22;1243;54.298;10.172;2023-01-05T04:05:35;8.30;1.00
2463;DHT22;1243;54.298;10.172;2023-01-05T04:08:01;8.30;1.00
2463;DHT22;1243;54.298;10.172;2023-01-05T04:10:26;8.30;1.00
2463;DHT22;1243;54.298;10.172;2023-01-05T04:12:52;8.30;1.00
2463;DHT22;1243;54.298;10.172;2023-01-05T04:15:18;8.30;1.00
2463;DHT22;1243;54.298;10.172;2023-01-05T04:17:43;8.30;1.00
2463;DHT22;1243;54.298;10.172;2023-01-05T04:20:10;8.30;1.00
2463;DHT22;1243;54.298;10.172;2023-01-05T04:22:35;8.30;1.00
2463;DHT22;1243;54.298;10.172;2023-01-05T04:25:01;8.30;1.00
2463;DHT22;1243;54.298;10.172;2023-01-05T04:27:27;8.30;1.00
2463;DHT22;1243;54.298;10.172;2023-01-05T04:29:52;8.40;1.00
2463;DHT22;1243;54.298;10.172;2023-01-05T04:32:18;8.30;1.00
2463;DHT22;1243;54.298;10.172;2023-01-05T04:34:44;8.30;1.00
2463;DHT22;1243;54.298;10.172;2023-01-05T04:37:09;8.20;1.00
2463;DHT22;1243;54.298;10.172;2023-01-05T04:39:35;8.20;1.00
2463;DHT22;1243;54.298;10.172;2023-01-05T04:42:01;8.10;1.00
2463;DHT22;1243;54.298;10.172;2023-01-05T04:44:27;8.10;1.00
2463;DHT22;1243;54.298;10.172;2023-01-05T04:46:52;8.10;1.00
2463;DHT22;1243;54.298;10.172;2023-01-05T04:49:18;8.10;1.00
2463;DHT22;1243;54.298;10.172;2023-01-05T04:51:44;8.10;1.00
2463;DHT22;1243;54.298;10.172;2023-01-05T04:54:09;8.20;1.00
2463;DHT22;1243;54.298;10.172;2023-01-05T04:56:35;8.20;1.00
2463;DHT22;1243;54.298;10.172;2023-01-05T04:59:00;8.20;1.00
2463;DHT22;1243;54.298;10.172;2023-01-05T05:01:26;8.20;1.00
2463;DHT22;1243;54.298;10.172;2023-01-05T05:03:52;8.20;1.00
2463;DHT22;1243;54.298;10.172;2023-01-05T05:06:18;8.20;1.00
2463;DHT22;1243;54.298;10.172;2023-01-05T05:08:44;8.20;1.00
2463;DHT22;1243;54.298;10.172;2023-01-05T05:11:09;8.20;1.00
2463;DHT22;1243;54.298;10.172;2023-01-05T05:13:35;8.20;1.00
2463;DHT22;1243;54.298;10.172;2023-01-05T05:16:01;8.20;1.00
2463;DHT22;1243;54.298;10.172;2023-01-05T05:18:26;8.20;1.00
2463;DHT22;1243;54.298;10.172;2023-01-05T05:20:52;8.10;1.00
2463;DHT22;1243;54.298;10.172;2023-01-05T05:23:18;8.00;1.00
2463;DHT22;1243;54.298;10.172;2023-01-05T05:25:47;8.00;1.00
2463;DHT22;1243;54.298;10.172;2023-01-05T05:28:13;7.90;1.00
2463;DHT22;1243;54.298;10.172;2023-01-05T05:30:39;7.90;1.00
2463;DHT22;1243;54.298;10.172;2023-01-05T05:33:04;7.90;1.00
2463;DHT22;1243;54.298;10.172;2023-01-05T05:35:31;7.90;1.00
2463;DHT22;1243;54.298;10.172;2023-01-05T05:37:57;7.90;1.00
2463;DHT22;1243;54.298;10.172;2023-01-05T05:40:23;8.00;1.00
2463;DHT22;1243;54.298;10.172;2023-01-05T05:42:50;8.00;1.00
2463;DHT22;1243;54.298;10.172;2023-01-05T05:45:16;8.00;1.00
2463;DHT22;1243;54.298;10.172;2023-01-05T05:47:42;8.00;1.00
2463;DHT22;1243;54.298;10.172;2023-01-05T05:50:08;8.00;1.00
2463;DHT22;1243;54.298;10.172;2023-01-05T05:52:34;8.10;1.00
2463;DHT22;1243;54.298;10.172;2023-01-05T05:55:00;8.10;1.00
2463;DHT22;1243;54.298;10.172;2023-01-05T05:57:26;8.10;1.00
2463;DHT22;1243;54.298;10.172;2023-01-05T05:59:51;8.20;1.00
2463;DHT22;1243;54.298;10.172;2023-01-05T06:02:17;8.20;1.00
2463;DHT22;1243;54.298;10.172;2023-01-05T06:04:44;8.20;1.00
2463;DHT22;1243;54.298;10.172;2023-01-05T06:07:10;8.20;1.00
2463;DHT22;1243;54.298;10.172;2023-01-05T06:09:35;8.30;1.00
2463;DHT22;1243;54.298;10.172;2023-01-05T06:12:01;8.30;1.00
2463;DHT22;1243;54.298;10.172;2023-01-05T06:14:27;8.30;1.00
2463;DHT22;1243;54.298;10.172;2023-01-05T06:16:52;8.30;1.00
2463;DHT22;1243;54.298;10.172;2023-01-05T06:19:18;8.30;1.00
2463;DHT22;1243;54.298;10.172;2023-01-05T06:21:44;8.30;1.00
2463;DHT22;1243;54.298;10.172;2023-01-05T06:24:09;8.30;1.00
2463;DHT22;1243;54.298;10.172;2023-01-05T06:26:35;8.30;1.00
2463;DHT22;1243;54.298;10.172;2023-01-05T06:29:01;8.30;1.00
2463;DHT22;1243;54.298;10.172;2023-01-05T06:31:26;8.30;1.00
2463;DHT22;1243;54.298;10.172;2023-01-05T06:33:52;8.20;1.00
2463;DHT22;1243;54.298;10.172;2023-01-05T06:36:18;8.20;1.00
2463;DHT22;1243;54.298;10.172;2023-01-05T06:38:44;8.20;1.00
2463;DHT22;1243;54.298;10.172;2023-01-05T06:41:09;8.20;1.00
2463;DHT22;1243;54.298;10.172;2023-01-05T06:43:35;8.20;1.00
2463;DHT22;1243;54.298;10.172;2023-01-05T06:46:01;8.20;1.00
2463;DHT22;1243;54.298;10.172;2023-01-05T06:48:27;8.20;1.00
2463;DHT22;1243;54.298;10.172;2023-01-05T06:50:52;8.20;1.00
2463;DHT22;1243;54.298;10.172;2023-01-05T06:53:18;8.20;1.00
2463;DHT22;1243;54.298;10.172;2023-01-05T06:55:44;8.10;1.00
2463;DHT22;1243;54.298;10.172;2023-01-05T06:58:10;8.00;1.00
2463;DHT22;1243;54.298;10.172;2023-01-05T07:00:36;7.90;1.00
2463;DHT22;1243;54.298;10.172;2023-01-05T07:03:02;7.80;1.00
2463;DHT22;1243;54.298;10.172;2023-01-05T07:05:27;7.70;99.90
2463;DHT22;1243;54.298;10.172;2023-01-05T07:07:53;7.60;99.90
2463;DHT22;1243;54.298;10.172;2023-01-05T07:10:19;7.50;99.90
2463;DHT22;1243;54.298;10.172;2023-01-05T07:12:45;7.40;99.90
2463;DHT22;1243;54.298;10.172;2023-01-05T07:15:10;7.20;99.90
2463;DHT22;1243;54.298;10.172;2023-01-05T07:17:36;7.20;99.90
2463;DHT22;1243;54.298;10.172;2023-01-05T07:20:03;7.10;99.90
2463;DHT22;1243;54.298;10.172;2023-01-05T07:22:29;7.00;99.90
2463;DHT22;1243;54.298;10.172;2023-01-05T07:24:56;6.90;99.90
2463;DHT22;1243;54.298;10.172;2023-01-05T07:27:23;6.80;99.90
2463;DHT22;1243;54.298;10.172;2023-01-05T07:29:49;6.60;99.90
2463;DHT22;1243;54.298;10.172;2023-01-05T07:32:14;6.50;99.90
2463;DHT22;1243;54.298;10.172;2023-01-05T07:34:40;6.30;99.90
2463;DHT22;1243;54.298;10.172;2023-01-05T07:37:06;6.20;99.90
2463;DHT22;1243;54.298;10.172;2023-01-05T07:39:31;6.20;99.90
2463;DHT22;1243;54.298;10.172;2023-01-05T07:41:57;6.10;99.90
2463;DHT22;1243;54.298;10.172;2023-01-05T07:44:23;6.10;99.90
2463;DHT22;1243;54.298;10.172;2023-01-05T07:46:48;6.00;99.90
2463;DHT22;1243;54.298;10.172;2023-01-05T07:49:14;6.00;99.90
2463;DHT22;1243;54.298;10.172;2023-01-05T07:51:40;6.00;99.90
2463;DHT22;1243;54.298;10.172;2023-01-05T07:54:06;5.90;99.90
2463;DHT22;1243;54.298;10.172;2023-01-05T07:56:31;5.80;99.90
2463;DHT22;1243;54.298;10.172;2023-01-05T07:58:58;5.80;99.90
2463;DHT22;1243;54.298;10.172;2023-01-05T08:01:24;5.90;99.90
2463;DHT22;1243;54.298;10.172;2023-01-05T08:03:49;5.80;99.90
2463;DHT22;1243;54.298;10.172;2023-01-05T08:06:17;5.80;99.90
2463;DHT22;1243;54.298;10.172;2023-01-05T08:08:44;5.70;99.90
2463;DHT22;1243;54.298;10.172;2023-01-05T08:11:12;5.60;99.90
2463;DHT22;1243;54.298;10.172;2023-01-05T08:13:42;5.60;99.90
2463;DHT22;1243;54.298;10.172;2023-01-05T08:16:31;5.60;99.90
2463;DHT22;1243;54.298;10.172;2023-01-05T08:18:58;5.50;99.90
2463;DHT22;1243;54.298;10.172;2023-01-05T08:21:24;5.50;99.90
2463;DHT22;1243;54.298;10.172;2023-01-05T08:23:50;5.40;99.90
2463;DHT22;1243;54.298;10.172;2023-01-05T08:26:19;5.40;99.90
2463;DHT22;1243;54.298;10.172;2023-01-05T08:28:45;5.40;99.90
2463;DHT22;1243;54.298;10.172;2023-01-05T08:31:14;5.50;99.90
2463;DHT22;1243;54.298;10.172;2023-01-05T08:33:41;5.40;99.90
2463;DHT22;1243;54.298;10.172;2023-01-05T08:36:19;5.30;99.90
2463;DHT22;1243;54.298;10.172;2023-01-05T08:38:45;5.20;99.90
2463;DHT22;1243;54.298;10.172;2023-01-05T08:41:22;5.10;99.90
2463;DHT22;1243;54.298;10.172;2023-01-05T08:43:53;5.10;99.90
2463;DHT22;1243;54.298;10.172;2023-01-05T08:46:21;5.10;99.90
2463;DHT22;1243;54.298;10.172;2023-01-05T08:48:48;5.10;99.90
2463;DHT22;1243;54.298;10.172;2023-01-05T08:51:15;5.00;99.90
2463;DHT22;1243;54.298;10.172;2023-01-05T08:53:41;5.00;99.90
2463;DHT22;1243;54.298;10.172;2023-01-05T08:56:07;5.00;99.90
2463;DHT22;1243;54.298;10.172;2023-01-05T08:58:35;5.00;99.90
2463;DHT22;1243;54.298;10.172;2023-01-05T09:01:11;5.10;99.90
2463;DHT22;1243;54.298;10.172;2023-01-05T09:03:38;5.10;99.90
2463;DHT22;1243;54.298;10.172;2023-01-05T09:06:04;5.10;99.90
2463;DHT22;1243;54.298;10.172;2023-01-05T09:08:31;5.10;99.90
2463;DHT22;1243;54.298;10.172;2023-01-05T09:11:08;5.20;99.90
2463;DHT22;1243;54.298;10.172;2023-01-05T09:13:34;5.20;99.90
2463;DHT22;1243;54.298;10.172;2023-01-05T09:16:14;5.30;99.90
2463;DHT22;1243;54.298;10.172;2023-01-05T09:18:41;5.40;99.90
2463;DHT22;1243;54.298;10.172;2023-01-05T09:21:07;5.40;99.90
2463;DHT22;1243;54.298;10.172;2023-01-05T09:23:34;5.40;99.90
2463;DHT22;1243;54.298;10.172;2023-01-05T09:26:03;5.40;99.90
2463;DHT22;1243;54.298;10.172;2023-01-05T09:28:29;5.40;99.90
2463;DHT22;1243;54.298;10.172;2023-01-05T09:30:55;5.50;99.90
2463;DHT22;1243;54.298;10.172;2023-01-05T09:33:20;5.50;99.90
2463;DHT22;1243;54.298;10.172;2023-01-05T09:35:54;5.50;99.90
2463;DHT22;1243;54.298;10.172;2023-01-05T09:38:21;5.50;99.90
2463;DHT22;1243;54.298;10.172;2023-01-05T09:40:47;5.60;99.90
2463;DHT22;1243;54.298;10.172;2023-01-05T09:43:27;5.60;99.90
2463;DHT22;1243;54.298;10.172;2023-01-05T09:45:54;5.60;99.90
2463;DHT22;1243;54.298;10.172;2023-01-05T09:48:21;5.70;99.90
2463;DHT22;1243;54.298;10.172;2023-01-05T09:50:48;5.70;99.90
2463;DHT22;1243;54.298;10.172;2023-01-05T09:53:25;5.70;99.90
2463;DHT22;1243;54.298;10.172;2023-01-05T09:55:52;5.80;99.90
2463;DHT22;1243;54.298;10.172;2023-01-05T09:58:23;5.90;99.90
2463;DHT22;1243;54.298;10.172;2023-01-05T10:01:14;5.90;99.90
2463;DHT22;1243;54.298;10.172;2023-01-05T10:06:19;6.00;99.90
2463;DHT22;1243;54.298;10.172;2023-01-05T10:08:49;6.00;99.90
2463;DHT22;1243;54.298;10.172;2023-01-05T10:11:36;6.00;99.90
2463;DHT22;1243;54.298;10.172;2023-01-05T10:14:28;5.90;99.90
2463;DHT22;1243;54.298;10.172;2023-01-05T10:16:55;5.80;99.90
2463;DHT22;1243;54.298;10.172;2023-01-05T10:19:21;5.90;99.90
2463;DHT22;1243;54.298;10.172;2023-01-05T10:24:21;5.90;99.90
2463;DHT22;1243;54.298;10.172;2023-01-05T10:27:25;6.00;99.90
2463;DHT22;1243;54.298;10.172;2023-01-05T10:32:48;6.10;99.90
2463;DHT22;1243;54.298;10.172;2023-01-05T10:38:29;6.10;99.90
2463;DHT22;1243;54.298;10.172;2023-01-05T10:46:19;6.20;99.90
2463;DHT22;1243;54.298;10.172;2023-01-05T10:48:46;6.20;99.90
2463;DHT22;1243;54.298;10.172;2023-01-05T10:51:12;6.20;99.90
2463;DHT22;1243;54.298;10.172;2023-01-05T10:53:40;6.20;99.90
2463;DHT22;1243;54.298;10.172;2023-01-05T10:58:37;6.30;99.90
2463;DHT22;1243;54.298;10.172;2023-01-05T11:01:27;6.30;99.90
2463;DHT22;1243;54.298;10.172;2023-01-05T11:06:29;6.50;99.90
2463;DHT22;1243;54.298;10.172;2023-01-05T11:09:16;6.40;99.90
2463;DHT22;1243;54.298;10.172;2023-01-05T11:11:43;6.40;99.90
2463;DHT22;1243;54.298;10.172;2023-01-05T11:14:17;6.50;99.90
2463;DHT22;1243;54.298;10.172;2023-01-05T11:16:47;6.50;99.90
2463;DHT22;1243;54.298;10.172;2023-01-05T11:19:17;6.50;99.90
2463;DHT22;1243;54.298;10.172;2023-01-05T11:21:44;6.50;99.90
2463;DHT22;1243;54.298;10.172;2023-01-05T11:26:50;6.50;99.90
2463;DHT22;1243;54.298;10.172;2023-01-05T11:29:16;6.50;99.90
2463;DHT22;1243;54.298;10.172;2023-01-05T11:32:01;6.50;99.90
2463;DHT22;1243;54.298;10.172;2023-01-05T11:34:43;6.60;99.90
2463;DHT22;1243;54.298;10.172;2023-01-05T11:37:23;6.70;99.90
2463;DHT22;1243;54.298;10.172;2023-01-05T11:40:00;6.80;99.90
2463;DHT22;1243;54.298;10.172;2023-01-05T11:42:33;6.80;99.90
2463;DHT22;1243;54.298;10.172;2023-01-05T11:45:05;6.80;99.90
2463;DHT22;1243;54.298;10.172;2023-01-05T11:47:43;6.80;99.90
2463;DHT22;1243;54.298;10.172;2023-01-05T11:50:23;6.70;99.90
2463;DHT22;1243;54.298;10.172;2023-01-05T11:52:58;6.70;99.90
2463;DHT22;1243;54.298;10.172;2023-01-05T12:01:08;6.70;99.90
2463;DHT22;1243;54.298;10.172;2023-01-05T12:09:29;6.70;99.90
2463;DHT22;1243;54.298;10.172;2023-01-05T12:17:41;7.10;99.90
2463;DHT22;1243;54.298;10.172;2023-01-05T12:26:08;7.10;99.90
2463;DHT22;1243;54.298;10.172;2023-01-05T12:50:45;6.70;99.90
2463;DHT22;1243;54.298;10.172;2023-01-05T12:56:06;6.70;99.90
2463;DHT22;1243;54.298;10.172;2023-01-05T12:58:38;6.70;99.90
2463;DHT22;1243;54.298;10.172;2023-01-05T13:01:13;6.50;99.90
2463;DHT22;1243;54.298;10.172;2023-01-05T13:03:47;6.60;99.90
2463;DHT22;1243;54.298;10.172;2023-01-05T13:06:17;6.50;99.90
2463;DHT22;1243;54.298;10.172;2023-01-05T13:09:03;6.50;99.90
2463;DHT22;1243;54.298;10.172;2023-01-05T13:11:43;6.50;99.90
2463;DHT22;1243;54.298;10.172;2023-01-05T13:14:20;6.50;99.90
2463;DHT22;1243;54.298;10.172;2023-01-05T13:17:05;6.50;99.90
2463;DHT22;1243;54.298;10.172;2023-01-05T13:19:46;6.60;99.90
2463;DHT22;1243;54.298;10.172;2023-01-05T13:22:22;6.60;99.90
2463;DHT22;1243;54.298;10.172;2023-01-05T13:27:51;6.60;99.90
2463;DHT22;1243;54.298;10.172;2023-01-05T13:30:30;6.60;99.90
2463;DHT22;1243;54.298;10.172;2023-01-05T13:35:53;6.70;99.90
2463;DHT22;1243;54.298;10.172;2023-01-05T13:41:09;6.60;99.90
2463;DHT22;1243;54.298;10.172;2023-01-05T13:47:03;6.40;99.90
2463;DHT22;1243;54.298;10.172;2023-01-05T13:49:57;6.40;99.90
2463;DHT22;1243;54.298;10.172;2023-01-05T13:52:41;6.40;99.90
2463;DHT22;1243;54.298;10.172;2023-01-05T13:55:15;6.30;99.90
2463;DHT22;1243;54.298;10.172;2023-01-05T13:57:43;6.30;99.90
2463;DHT22;1243;54.298;10.172;2023-01-05T14:03:00;6.30;99.90
2463;DHT22;1243;54.298;10.172;2023-01-05T14:05:38;6.30;99.90
2463;DHT22;1243;54.298;10.172;2023-01-05T14:08:17;6.30;99.90
2463;DHT22;1243;54.298;10.172;2023-01-05T14:11:08;6.30;99.90
2463;DHT22;1243;54.298;10.172;2023-01-05T14:13:50;6.20;99.90
2463;DHT22;1243;54.298;10.172;2023-01-05T14:19:11;6.20;99.90
2463;DHT22;1243;54.298;10.172;2023-01-05T14:24:35;6.30;99.90
2463;DHT22;1243;54.298;10.172;2023-01-05T14:27:08;6.40;99.90
2463;DHT22;1243;54.298;10.172;2023-01-05T14:32:25;6.20;99.90
2463;DHT22;1243;54.298;10.172;2023-01-05T14:35:01;6.20;99.90
2463;DHT22;1243;54.298;10.172;2023-01-05T14:37:48;6.20;99.90
2463;DHT22;1243;54.298;10.172;2023-01-05T14:40:30;6.20;99.90
2463;DHT22;1243;54.298;10.172;2023-01-05T14:42:56;6.20;99.90
2463;DHT22;1243;54.298;10.172;2023-01-05T14:45:28;6.20;99.90
2463;DHT22;1243;54.298;10.172;2023-01-05T14:48:00;6.20;99.90
2463;DHT22;1243;54.298;10.172;2023-01-05T14:55:36;6.20;99.90
2463;DHT22;1243;54.298;10.172;2023-01-05T14:58:45;6.10;99.90
2463;DHT22;1243;54.298;10.172;2023-01-05T15:01:01;6.10;99.90
2463;DHT22;1243;54.298;10.172;2023-01-05T15:03:36;6.20;99.90
2463;DHT22;1243;54.298;10.172;2023-01-05T15:06:10;6.10;99.90
2463;DHT22;1243;54.298;10.172;2023-01-05T15:23:29;6.20;99.90
2463;DHT22;1243;54.298;10.172;2023-01-05T15:34:13;6.10;99.90
2463;DHT22;1243;54.298;10.172;2023-01-05T15:39:31;6.20;99.90
2463;DHT22;1243;54.298;10.172;2023-01-05T15:42:03;6.20;99.90
2463;DHT22;1243;54.298;10.172;2023-01-05T15:44:35;6.30;99.90
2463;DHT22;1243;54.298;10.172;2023-01-05T15:47:01;6.30;99.90
2463;DHT22;1243;54.298;10.172;2023-01-05T15:49:31;6.30;99.90
2463;DHT22;1243;54.298;10.172;2023-01-05T15:51:57;6.40;99.90
2463;DHT22;1243;54.298;10.172;2023-01-05T15:54:29;6.40;99.90
2463;DHT22;1243;54.298;10.172;2023-01-05T15:56:56;6.50;99.90
2463;DHT22;1243;54.298;10.172;2023-01-05T15:59:32;6.40;99.90
2463;DHT22;1243;54.298;10.172;2023-01-05T16:01:58;6.40;99.90
2463;DHT22;1243;54.298;10.172;2023-01-05T16:04:24;6.40;99.90
2463;DHT22;1243;54.298;10.172;2023-01-05T16:06:59;6.40;99.90
2463;DHT22;1243;54.298;10.172;2023-01-05T16:09:27;6.40;99.90
2463;DHT22;1243;54.298;10.172;2023-01-05T16:11:59;6.40;99.90
2463;DHT22;1243;54.298;10.172;2023-01-05T16:14:40;6.50;99.90
2463;DHT22;1243;54.298;10.172;2023-01-05T16:17:18;6.50;99.90
2463;DHT22;1243;54.298;10.172;2023-01-05T16:19:52;6.50;99.90
2463;DHT22;1243;54.298;10.172;2023-01-05T16:27:27;6.30;99.90
2463;DHT22;1243;54.298;10.172;2023-01-05T16:29:53;6.30;99.90
2463;DHT22;1243;54.298;10.172;2023-01-05T16:32:32;6.30;99.90
2463;DHT22;1243;54.298;10.172;2023-01-05T16:35:37;6.30;99.90
2463;DHT22;1243;54.298;10.172;2023-01-05T16:38:11;6.20;99.90
2463;DHT22;1243;54.298;10.172;2023-01-05T16:43:57;6.10;99.90
2463;DHT22;1243;54.298;10.172;2023-01-05T16:46:40;6.10;99.90
2463;DHT22;1243;54.298;10.172;2023-01-05T16:49:23;6.00;99.90
2463;DHT22;1243;54.298;10.172;2023-01-05T16:51:49;5.90;99.90
2463;DHT22;1243;54.298;10.172;2023-01-05T16:54:26;5.80;99.90
2463;DHT22;1243;54.298;10.172;2023-01-05T16:56:58;5.70;99.90
2463;DHT22;1243;54.298;10.172;2023-01-05T16:59:40;5.70;99.90
2463;DHT22;1243;54.298;10.172;2023-01-05T17:04:54;5.50;99.90
2463;DHT22;1243;54.298;10.172;2023-01-05T17:07:20;5.50;99.90
2463;DHT22;1243;54.298;10.172;2023-01-05T17:09:46;5.30;99.90
2463;DHT22;1243;54.298;10.172;2023-01-05T17:12:12;5.30;99.90
2463;DHT22;1243;54.298;10.172;2023-01-05T17:14:39;5.20;99.90
2463;DHT22;1243;54.298;10.172;2023-01-05T17:17:08;5.20;99.90
2463;DHT22;1243;54.298;10.172;2023-01-05T17:19:36;5.10;99.90
2463;DHT22;1243;54.298;10.172;2023-01-05T17:22:02;5.00;99.90
2463;DHT22;1243;54.298;10.172;2023-01-05T17:24:32;4.90;99.90
2463;DHT22;1243;54.298;10.172;2023-01-05T17:26:58;4.80;99.90
2463;DHT22;1243;54.298;10.172;2023-01-05T17:29:25;4.80;99.90
2463;DHT22;1243;54.298;10.172;2023-01-05T17:31:52;4.70;99.90
2463;DHT22;1243;54.298;10.172;2023-01-05T17:34:18;4.70;99.90
2463;DHT22;1243;54.298;10.172;2023-01-05T17:36:45;4.70;99.90
2463;DHT22;1243;54.298;10.172;2023-01-05T17:39:17;4.70;99.90
2463;DHT22;1243;54.298;10.172;2023-01-05T17:41:43;4.80;99.90
2463;DHT22;1243;54.298;10.172;2023-01-05T17:44:09;4.90;99.90
2463;DHT22;1243;54.298;10.172;2023-01-05T17:46:37;4.90;99.90
2463;DHT22;1243;54.298;10.172;2023-01-05T17:49:05;4.90;99.90
2463;DHT22;1243;54.298;10.172;2023-01-05T17:51:31;4.90;99.90
2463;DHT22;1243;54.298;10.172;2023-01-05T17:53:57;4.90;99.90
2463;DHT22;1243;54.298;10.172;2023-01-05T17:56:24;4.90;99.90
2463;DHT22;1243;54.298;10.172;2023-01-05T17:58:50;5.00;99.90
2463;DHT22;1243;54.298;10.172;2023-01-05T18:01:15;5.10;99.90
2463;DHT22;1243;54.298;10.172;2023-01-05T18:03:41;5.10;99.90
2463;DHT22;1243;54.298;10.172;2023-01-05T18:06:07;5.20;99.90
2463;DHT22;1243;54.298;10.172;2023-01-05T18:08:34;5.20;99.90
2463;DHT22;1243;54.298;10.172;2023-01-05T18:11:05;5.30;99.90
2463;DHT22;1243;54.298;10.172;2023-01-05T18:13:31;5.30;99.90
2463;DHT22;1243;54.298;10.172;2023-01-05T18:15:58;5.40;99.90
2463;DHT22;1243;54.298;10.172;2023-01-05T18:18:23;5.50;99.90
2463;DHT22;1243;54.298;10.172;2023-01-05T18:20:50;5.50;99.90
2463;DHT22;1243;54.298;10.172;2023-01-05T18:23:17;5.50;99.90
2463;DHT22;1243;54.298;10.172;2023-01-05T18:25:46;5.50;99.90
2463;DHT22;1243;54.298;10.172;2023-01-05T18:28:12;5.50;99.90
2463;DHT22;1243;54.298;10.172;2023-01-05T18:30:41;5.60;99.90
2463;DHT22;1243;54.298;10.172;2023-01-05T18:33:07;5.60;99.90
2463;DHT22;1243;54.298;10.172;2023-01-05T18:35:32;5.70;99.90
2463;DHT22;1243;54.298;10.172;2023-01-05T18:37:58;5.70;99.90
2463;DHT22;1243;54.298;10.172;2023-01-05T18:40:26;5.70;99.90
2463;DHT22;1243;54.298;10.172;2023-01-05T18:42:52;5.80;99.90
2463;DHT22;1243;54.298;10.172;2023-01-05T18:45:18;5.80;99.90
2463;DHT22;1243;54.298;10.172;2023-01-05T18:47:44;5.80;99.90
2463;DHT22;1243;54.298;10.172;2023-01-05T18:50:10;5.80;99.90
2463;DHT22;1243;54.298;10.172;2023-01-05T18:52:36;5.80;99.90
2463;DHT22;1243;54.298;10.172;2023-01-05T18:55:02;5.90;99.90
2463;DHT22;1243;54.298;10.172;2023-01-05T18:57:30;5.80;99.90
2463;DHT22;1243;54.298;10.172;2023-01-05T18:59:56;5.90;99.90
2463;DHT22;1243;54.298;10.172;2023-01-05T19:02:22;5.90;99.90